createdAt,value
2023-03-17T00:01:14.940Z,5.90
2023-03-17T00:03:43.720Z,4.90
2023-03-17T00:06:19.692Z,5.77
2023-03-17T00:08:47.546Z,4.60
2023-03-17T00:11:16.790Z,5.30
2023-03-17T00:13:45.235Z,5.00
2023-03-17T00:16:22.348Z,4.17
2023-03-17T00:18:50.880Z,4.50
2023-03-17T00:21:29.784Z,5.03
2023-03-17T00:23:58.427Z,1.30
2023-03-17T00:26:26.978Z,2.53
2023-03-17T00:28:55.558Z,4.30
2023-03-17T00:31:24.882Z,4.30
2023-03-17T00:33:54.356Z,3.53
2023-03-17T00:36:39.854Z,3.80
2023-03-17T00:39:17.521Z,0.83
2023-03-17T00:41:44.885Z,2.77
2023-03-17T00:44:12.150Z,2.20
2023-03-17T00:46:42.101Z,1.30
2023-03-17T00:49:20.857Z,1.47
2023-03-17T00:51:50.013Z,4.20
2023-03-17T00:54:18.951Z,3.10
2023-03-17T00:56:47.119Z,3.73
2023-03-17T00:59:23.254Z,1.60
2023-03-17T01:01:50.496Z,4.63
2023-03-17T01:04:18.834Z,3.80
2023-03-17T01:06:46.620Z,1.60
2023-03-17T01:09:18.710Z,1.47
2023-03-17T01:11:46.264Z,1.80
2023-03-17T01:14:14.053Z,2.07
2023-03-17T01:16:41.770Z,0.90
2023-03-17T01:19:11.993Z,1.10
2023-03-17T01:21:39.295Z,1.00
2023-03-17T01:24:06.940Z,1.10
2023-03-17T01:26:34.243Z,3.17
2023-03-17T01:29:01.554Z,3.90
2023-03-17T01:31:29.028Z,4.47
2023-03-17T01:33:56.549Z,4.30
2023-03-17T01:36:23.784Z,3.20
2023-03-17T01:38:51.428Z,1.67
2023-03-17T01:41:20.988Z,1.10
2023-03-17T01:43:48.750Z,0.80
2023-03-17T01:46:16.776Z,1.10
2023-03-17T01:49:09.662Z,0.90
2023-03-17T01:51:47.483Z,4.13
2023-03-17T01:54:31.038Z,1.20
2023-03-17T01:57:04.656Z,2.60
2023-03-17T01:59:36.489Z,4.60
2023-03-17T02:02:07.193Z,4.30
2023-03-17T02:04:34.682Z,4.03
2023-03-17T02:07:02.927Z,4.70
2023-03-17T02:09:30.308Z,3.27
2023-03-17T02:11:59.970Z,1.43
2023-03-17T02:14:27.761Z,1.03
2023-03-17T02:16:55.093Z,1.10
2023-03-17T02:19:22.515Z,1.70
2023-03-17T02:21:58.505Z,3.30
2023-03-17T02:24:38.454Z,1.30
2023-03-17T02:27:12.217Z,2.83
2023-03-17T02:29:39.995Z,3.93
2023-03-17T02:32:07.942Z,3.33
2023-03-17T02:34:35.258Z,1.40
2023-03-17T02:37:02.836Z,1.20
2023-03-17T02:39:30.221Z,1.10
2023-03-17T02:41:57.597Z,1.40
2023-03-17T02:44:25.516Z,1.00
2023-03-17T02:46:52.843Z,0.90
2023-03-17T02:49:20.729Z,3.43
2023-03-17T02:51:48.429Z,4.00
2023-03-17T02:54:15.732Z,4.30
2023-03-17T02:56:42.933Z,4.50
2023-03-17T02:59:10.376Z,4.33
2023-03-17T03:01:39.812Z,2.67
2023-03-17T03:04:07.771Z,3.23
2023-03-17T03:06:35.661Z,1.67
2023-03-17T03:09:04.103Z,1.40
2023-03-17T03:11:31.625Z,1.00
2023-03-17T03:13:59.172Z,0.90
2023-03-17T03:16:26.513Z,0.90
2023-03-17T03:18:53.946Z,1.10
2023-03-17T03:21:22.430Z,2.70
2023-03-17T03:23:49.839Z,3.53
2023-03-17T03:26:17.527Z,4.23
2023-03-17T03:28:44.826Z,3.87
2023-03-17T03:31:12.203Z,4.90
2023-03-17T03:33:40.100Z,5.97
2023-03-17T03:36:08.999Z,3.40
2023-03-17T03:38:36.795Z,3.60
2023-03-17T03:41:04.418Z,2.40
2023-03-17T03:43:31.791Z,1.00
2023-03-17T03:45:59.631Z,1.00
2023-03-17T03:48:27.690Z,0.93
2023-03-17T03:50:59.976Z,0.97
2023-03-17T03:53:27.813Z,1.30
2023-03-17T03:55:55.438Z,0.70
2023-03-17T03:58:23.129Z,1.63
2023-03-17T04:00:50.655Z,2.90
2023-03-17T04:03:18.066Z,4.80
2023-03-17T04:05:45.750Z,3.80
2023-03-17T04:08:13.180Z,5.70
2023-03-17T04:10:40.478Z,4.00
2023-03-17T04:13:08.812Z,3.17
2023-03-17T04:15:36.263Z,2.93
2023-03-17T04:18:05.487Z,1.83
2023-03-17T04:20:33.418Z,1.17
2023-03-17T04:23:01.501Z,1.10
2023-03-17T04:25:29.522Z,1.10
2023-03-17T04:27:56.914Z,0.90
2023-03-17T04:30:24.199Z,1.33
2023-03-17T04:32:51.615Z,2.63
2023-03-17T04:35:21.787Z,4.83
2023-03-17T04:37:50.062Z,4.43
2023-03-17T04:40:18.995Z,4.57
2023-03-17T04:42:46.664Z,4.50
2023-03-17T04:45:16.040Z,4.87
2023-03-17T04:47:43.933Z,4.70
2023-03-17T04:50:12.546Z,4.37
2023-03-17T04:52:40.906Z,5.30
2023-03-17T04:55:08.773Z,2.90
2023-03-17T04:57:37.028Z,2.80
2023-03-17T05:00:08.061Z,1.83
2023-03-17T05:02:35.618Z,1.60
2023-03-17T05:05:03.007Z,1.30
2023-03-17T05:07:32.193Z,1.40
2023-03-17T05:10:01.334Z,1.67
2023-03-17T05:12:29.234Z,1.17
2023-03-17T05:14:56.568Z,0.90
2023-03-17T05:17:23.878Z,1.60
2023-03-17T05:19:51.337Z,2.63
2023-03-17T05:22:18.522Z,5.67
2023-03-17T05:24:45.724Z,4.53
2023-03-17T05:27:12.982Z,6.03
2023-03-17T05:29:40.372Z,5.17
2023-03-17T05:32:07.938Z,3.03
2023-03-17T05:34:35.319Z,1.80
2023-03-17T05:37:03.563Z,0.88
2023-03-17T05:39:31.096Z,2.07
2023-03-17T05:41:58.561Z,1.97
2023-03-17T05:44:25.948Z,1.20
2023-03-17T05:46:53.170Z,1.00
2023-03-17T05:49:20.659Z,2.75
2023-03-17T05:51:48.005Z,4.73
2023-03-17T05:54:15.226Z,4.13
2023-03-17T05:56:43.122Z,4.50
2023-03-17T05:59:15.137Z,4.70
2023-03-17T06:01:42.589Z,4.80
2023-03-17T06:04:10.057Z,4.50
2023-03-17T06:06:37.341Z,3.90
2023-03-17T06:09:05.006Z,1.77
2023-03-17T06:11:32.548Z,1.52
2023-03-17T06:14:00.135Z,1.00
2023-03-17T06:16:31.354Z,1.37
2023-03-17T06:18:59.147Z,1.10
2023-03-17T06:21:26.428Z,2.20
2023-03-17T06:23:53.798Z,1.03
2023-03-17T06:26:21.039Z,3.13
2023-03-17T06:28:48.589Z,4.60
2023-03-17T06:31:16.084Z,4.93
2023-03-17T06:33:44.162Z,5.27
2023-03-17T06:36:11.344Z,4.72
2023-03-17T06:38:39.651Z,3.10
2023-03-17T06:41:07.191Z,4.27
2023-03-17T06:43:34.609Z,2.40
2023-03-17T06:46:02.443Z,1.33
2023-03-17T06:48:30.142Z,1.53
2023-03-17T06:50:57.489Z,1.37
2023-03-17T06:53:25.010Z,1.93
2023-03-17T06:55:52.276Z,1.70
2023-03-17T06:58:21.225Z,4.27
2023-03-17T07:00:49.152Z,4.60
2023-03-17T07:03:17.092Z,1.88
2023-03-17T07:05:44.938Z,4.10
2023-03-17T07:08:12.282Z,5.03
2023-03-17T07:10:41.647Z,4.63
2023-03-17T07:13:08.879Z,3.53
2023-03-17T07:15:37.594Z,2.60
2023-03-17T07:18:06.794Z,1.47
2023-03-17T07:20:34.034Z,1.87
2023-03-17T07:23:02.013Z,2.83
2023-03-17T07:25:29.791Z,1.17
2023-03-17T07:27:57.518Z,0.90
2023-03-17T07:30:24.978Z,0.90
2023-03-17T07:32:52.439Z,2.10
2023-03-17T07:35:20.067Z,3.73
2023-03-17T07:37:47.686Z,4.23
2023-03-17T07:40:15.088Z,4.40
2023-03-17T07:42:42.611Z,5.13
2023-03-17T07:45:10.278Z,4.40
2023-03-17T07:47:37.879Z,4.20
2023-03-17T07:50:06.132Z,1.57
2023-03-17T07:52:34.775Z,1.50
2023-03-17T07:55:03.137Z,0.90
2023-03-17T07:57:30.752Z,1.30
2023-03-17T07:59:58.398Z,1.70
2023-03-17T08:02:25.849Z,1.73
2023-03-17T08:04:54.234Z,0.83
2023-03-17T08:07:21.486Z,1.93
2023-03-17T08:09:48.930Z,3.63
2023-03-17T08:12:16.227Z,3.90
2023-03-17T08:14:43.470Z,4.00
2023-03-17T08:17:10.788Z,4.03
2023-03-17T08:19:38.190Z,2.37
2023-03-17T08:22:05.658Z,1.60
2023-03-17T08:24:33.268Z,1.07
2023-03-17T08:27:01.521Z,0.90
2023-03-17T08:29:29.888Z,0.80
2023-03-17T08:31:58.089Z,1.03
2023-03-17T08:34:26.471Z,0.80
2023-03-17T08:36:53.774Z,0.70
2023-03-17T08:39:21.107Z,1.93
2023-03-17T08:41:48.369Z,3.47
2023-03-17T08:44:15.839Z,3.30
2023-03-17T08:46:43.077Z,4.33
2023-03-17T08:49:11.258Z,4.30
2023-03-17T08:51:38.945Z,2.57
2023-03-17T08:54:07.972Z,1.90
2023-03-17T08:56:35.356Z,1.50
2023-03-17T08:59:03.085Z,0.97
2023-03-17T09:01:31.868Z,1.00
2023-03-17T09:03:59.407Z,0.70
2023-03-17T09:06:27.919Z,0.80
2023-03-17T09:08:58.735Z,0.90
2023-03-17T09:11:32.023Z,0.97
2023-03-17T09:14:00.745Z,0.70
2023-03-17T09:16:29.303Z,0.73
2023-03-17T09:18:56.660Z,1.30
2023-03-17T09:21:23.943Z,0.60
2023-03-17T09:23:51.717Z,1.90
2023-03-17T09:26:20.442Z,2.70
2023-03-17T09:28:48.080Z,2.90
2023-03-17T09:31:15.349Z,2.73
2023-03-17T09:33:42.523Z,3.03
2023-03-17T09:36:11.335Z,3.23
2023-03-17T09:38:39.063Z,2.07
2023-03-17T09:41:15.200Z,1.87
2023-03-17T09:43:49.769Z,3.07
2023-03-17T09:46:41.446Z,2.13
2023-03-17T09:49:12.605Z,2.17
2023-03-17T09:51:40.169Z,3.70
2023-03-17T09:54:38.758Z,2.27
2023-03-17T09:57:37.231Z,1.10
2023-03-17T10:00:15.009Z,1.10
2023-03-17T10:02:43.491Z,2.63
2023-03-17T10:05:27.115Z,2.43
2023-03-17T10:08:29.044Z,0.63
2023-03-17T10:11:04.035Z,0.70
2023-03-17T10:14:02.468Z,0.70
2023-03-17T10:16:55.205Z,0.70
2023-03-17T10:19:29.103Z,1.13
2023-03-17T10:22:24.015Z,0.90
2023-03-17T10:25:04.794Z,1.43
2023-03-17T10:27:36.657Z,0.70
2023-03-17T10:30:06.410Z,1.03
2023-03-17T10:32:37.188Z,0.90
2023-03-17T10:35:05.124Z,1.07
2023-03-17T10:37:37.343Z,0.80
2023-03-17T10:40:10.625Z,1.10
2023-03-17T10:42:50.360Z,1.70
2023-03-17T10:45:32.920Z,2.17
2023-03-17T10:48:04.625Z,0.70
2023-03-17T10:50:42.023Z,0.87
2023-03-17T10:53:28.588Z,1.97
2023-03-17T10:56:02.843Z,0.80
2023-03-17T10:58:38.973Z,0.70
2023-03-17T11:01:15.744Z,1.10
2023-03-17T11:03:43.472Z,2.73
2023-03-17T11:06:13.694Z,2.00
2023-03-17T11:08:46.445Z,2.70
2023-03-17T11:11:27.601Z,2.30
2023-03-17T11:14:05.089Z,0.60
2023-03-17T11:16:57.493Z,0.60
2023-03-17T11:19:40.900Z,0.60
2023-03-17T11:22:29.566Z,2.03
2023-03-17T11:25:13.102Z,0.60
2023-03-17T11:27:47.934Z,2.37
2023-03-17T11:30:37.734Z,2.03
2023-03-17T11:33:13.482Z,1.10
2023-03-17T11:35:55.125Z,2.70
2023-03-17T11:38:59.012Z,1.03
2023-03-17T11:41:45.296Z,0.60
2023-03-17T11:44:27.845Z,2.30
2023-03-17T11:47:20.867Z,0.60
2023-03-17T11:50:02.657Z,2.03
2023-03-17T11:52:46.957Z,0.70
2023-03-17T11:55:24.360Z,2.33
2023-03-17T11:58:01.978Z,1.10
2023-03-17T12:00:35.011Z,0.60
2023-03-17T12:03:21.230Z,0.60
2023-03-17T12:05:51.468Z,2.50
2023-03-17T12:08:43.005Z,2.10
2023-03-17T12:11:14.562Z,2.13
2023-03-17T12:13:54.952Z,1.90
2023-03-17T12:16:37.489Z,1.03
2023-03-17T12:19:11.858Z,0.83
2023-03-17T12:21:47.901Z,1.47
2023-03-17T12:24:29.233Z,1.83
2023-03-17T12:27:37.569Z,0.67
2023-03-17T12:30:29.906Z,0.80
2023-03-17T12:33:12.701Z,0.60
2023-03-17T12:35:40.061Z,1.70
2023-03-17T12:38:23.388Z,1.93
2023-03-17T12:41:12.262Z,8.33
2023-03-17T12:43:42.277Z,1.77
2023-03-17T12:46:35.312Z,1.87
2023-03-17T12:49:03.356Z,0.60
2023-03-17T12:51:38.643Z,0.50
2023-03-17T12:54:12.545Z,0.77
2023-03-17T12:56:45.500Z,2.23
2023-03-17T12:59:21.476Z,1.53
2023-03-17T13:02:15.961Z,1.57
2023-03-17T13:05:01.356Z,2.20
2023-03-17T13:07:32.213Z,0.53
2023-03-17T13:09:59.871Z,0.50
2023-03-17T13:12:43.085Z,0.60
2023-03-17T13:15:48.573Z,2.87
2023-03-17T13:18:15.915Z,1.53
2023-03-17T13:20:46.093Z,1.77
2023-03-17T13:23:17.558Z,2.10
2023-03-17T13:25:53.914Z,1.53
2023-03-17T13:28:27.313Z,1.13
2023-03-17T13:31:28.893Z,0.60
2023-03-17T13:33:58.571Z,0.60
2023-03-17T13:36:40.343Z,0.60
2023-03-17T13:39:19.848Z,1.57
2023-03-17T13:41:52.739Z,2.60
2023-03-17T13:44:45.032Z,1.27
2023-03-17T13:47:36.424Z,1.93
2023-03-17T13:50:13.208Z,0.70
2023-03-17T13:52:57.085Z,1.57
2023-03-17T13:55:24.385Z,0.60
2023-03-17T13:58:11.172Z,0.90
2023-03-17T14:00:47.614Z,1.13
2023-03-17T14:03:14.940Z,1.33
2023-03-17T14:05:43.497Z,1.47
2023-03-17T14:08:20.431Z,1.87
2023-03-17T14:10:59.923Z,1.73
2023-03-17T14:13:42.969Z,0.70
2023-03-17T14:16:17.537Z,1.80
2023-03-17T14:18:54.654Z,1.70
2023-03-17T14:21:25.195Z,0.90
2023-03-17T14:23:57.188Z,0.93
2023-03-17T14:26:26.772Z,0.60
2023-03-17T14:28:54.581Z,0.50
2023-03-17T14:31:25.240Z,1.07
2023-03-17T14:33:55.967Z,1.07
2023-03-17T14:36:24.424Z,0.70
2023-03-17T14:38:54.053Z,0.90
2023-03-17T14:41:24.160Z,1.00
2023-03-17T14:43:52.787Z,1.07
2023-03-17T14:46:29.381Z,1.43
2023-03-17T14:49:02.856Z,0.60
2023-03-17T14:51:39.316Z,0.57
2023-03-17T14:54:20.112Z,1.30
2023-03-17T14:56:49.344Z,1.60
2023-03-17T14:59:27.600Z,1.47
2023-03-17T15:01:57.259Z,0.80
2023-03-17T15:04:30.922Z,0.60
2023-03-17T15:07:02.165Z,0.50
2023-03-17T15:09:39.015Z,0.60
2023-03-17T15:12:23.327Z,1.87
2023-03-17T15:15:05.374Z,1.33
2023-03-17T15:17:37.278Z,0.70
2023-03-17T15:20:08.065Z,0.77
2023-03-17T15:22:35.270Z,1.10
2023-03-17T15:25:34.703Z,0.67
2023-03-17T15:28:02.391Z,0.50
2023-03-17T15:30:44.351Z,0.60
2023-03-17T15:33:21.917Z,2.00
2023-03-17T15:35:50.498Z,2.20
2023-03-17T15:38:18.121Z,1.57
2023-03-17T15:40:45.930Z,2.20
2023-03-17T15:43:15.688Z,2.00
2023-03-17T15:45:45.189Z,2.80
2023-03-17T15:48:27.831Z,1.67
2023-03-17T15:50:57.039Z,0.70
2023-03-17T15:53:24.476Z,0.60
2023-03-17T15:55:51.888Z,1.33
2023-03-17T15:58:19.429Z,1.53
2023-03-17T16:00:52.521Z,1.63
2023-03-17T16:03:33.926Z,1.77
2023-03-17T16:06:03.127Z,0.60
2023-03-17T16:08:31.245Z,0.60
2023-03-17T16:10:58.581Z,1.30
2023-03-17T16:13:26.082Z,0.60
2023-03-17T16:15:59.292Z,1.00
2023-03-17T16:18:37.957Z,1.43
2023-03-17T16:21:05.959Z,0.87
2023-03-17T16:23:36.915Z,0.60
2023-03-17T16:26:14.800Z,1.25
2023-03-17T16:28:43.768Z,3.57
2023-03-17T16:31:22.227Z,1.97
2023-03-17T16:33:50.620Z,1.77
2023-03-17T16:36:19.467Z,2.00
2023-03-17T16:38:47.643Z,1.70
2023-03-17T16:41:22.400Z,1.70
2023-03-17T16:43:55.462Z,1.80
2023-03-17T16:46:23.556Z,1.17
2023-03-17T16:48:51.515Z,1.47
2023-03-17T16:51:19.775Z,1.90
2023-03-17T16:53:47.804Z,1.60
2023-03-17T16:56:22.911Z,2.10
2023-03-17T16:58:50.510Z,1.63
2023-03-17T17:01:21.164Z,1.73
2023-03-17T17:03:49.104Z,1.93
2023-03-17T17:06:17.014Z,2.10
2023-03-17T17:08:45.328Z,2.10
2023-03-17T17:11:13.680Z,1.57
2023-03-17T17:13:42.565Z,1.50
2023-03-17T17:16:29.784Z,1.60
2023-03-17T17:18:57.912Z,0.70
2023-03-17T17:21:26.523Z,0.87
2023-03-17T17:23:54.233Z,1.53
2023-03-17T17:26:22.360Z,1.70
2023-03-17T17:28:49.930Z,1.93
2023-03-17T17:31:17.383Z,2.10
2023-03-17T17:33:45.511Z,1.80
2023-03-17T17:36:15.791Z,1.43
2023-03-17T17:38:43.322Z,1.43
2023-03-17T17:41:11.936Z,1.07
2023-03-17T17:43:39.433Z,0.80
2023-03-17T17:46:21.075Z,0.60
2023-03-17T17:48:49.347Z,2.77
2023-03-17T17:51:16.696Z,1.87
2023-03-17T17:53:44.548Z,1.50
2023-03-17T17:56:17.988Z,0.87
2023-03-17T17:58:45.574Z,1.27
2023-03-17T18:01:14.491Z,0.80
2023-03-17T18:03:43.224Z,0.87
2023-03-17T18:06:11.959Z,0.70
2023-03-17T18:08:40.178Z,0.67
2023-03-17T18:11:07.964Z,0.70
2023-03-17T18:13:36.717Z,0.70
2023-03-17T18:16:04.397Z,0.83
2023-03-17T18:18:32.720Z,0.60
2023-03-17T18:21:00.161Z,1.80
2023-03-17T18:23:28.283Z,2.00
2023-03-17T18:26:02.577Z,2.80
2023-03-17T18:28:30.010Z,1.53
2023-03-17T18:31:03.920Z,2.27
2023-03-17T18:33:32.241Z,1.13
2023-03-17T18:35:59.618Z,1.90
2023-03-17T18:38:27.112Z,2.10
2023-03-17T18:40:54.456Z,2.60
2023-03-17T18:43:22.390Z,2.70
2023-03-17T18:45:49.646Z,1.70
2023-03-17T18:48:17.195Z,1.40
2023-03-17T18:50:44.763Z,0.93
2023-03-17T18:53:12.519Z,0.60
2023-03-17T18:55:40.558Z,0.60
2023-03-17T18:58:08.071Z,0.70
2023-03-17T19:00:35.341Z,0.60
2023-03-17T19:03:02.669Z,1.90
2023-03-17T19:05:30.131Z,2.57
2023-03-17T19:07:58.270Z,2.13
2023-03-17T19:10:26.235Z,2.40
2023-03-17T19:12:53.712Z,2.43
2023-03-17T19:15:21.906Z,1.50
2023-03-17T19:17:50.863Z,4.23
2023-03-17T19:20:19.963Z,1.23
2023-03-17T19:22:47.721Z,0.83
2023-03-17T19:25:16.899Z,0.60
2023-03-17T19:27:44.790Z,0.70
2023-03-17T19:30:13.345Z,0.70
2023-03-17T19:32:41.153Z,0.70
2023-03-17T19:35:08.761Z,0.80
2023-03-17T19:37:36.947Z,1.93
2023-03-17T19:40:06.491Z,2.40
2023-03-17T19:42:33.963Z,2.60
2023-03-17T19:45:01.636Z,2.50
2023-03-17T19:47:29.007Z,4.50
2023-03-17T19:49:56.632Z,2.70
2023-03-17T19:52:24.359Z,2.10
2023-03-17T19:54:51.908Z,0.80
2023-03-17T19:57:21.117Z,0.60
2023-03-17T19:59:48.909Z,1.10
2023-03-17T20:02:17.305Z,3.13
2023-03-17T20:04:48.570Z,0.80
2023-03-17T20:07:16.091Z,0.80
2023-03-17T20:09:45.026Z,1.37
2023-03-17T20:12:12.458Z,1.47
2023-03-17T20:14:39.757Z,2.20
2023-03-17T20:17:07.240Z,2.93
2023-03-17T20:19:37.102Z,2.33
2023-03-17T20:22:04.496Z,2.90
2023-03-17T20:24:31.881Z,2.53
2023-03-17T20:26:59.802Z,1.80
2023-03-17T20:29:27.714Z,1.00
2023-03-17T20:31:56.270Z,0.90
2023-03-17T20:34:24.226Z,4.10
2023-03-17T20:36:52.050Z,0.97
2023-03-17T20:39:22.242Z,0.70
2023-03-17T20:41:53.295Z,0.70
2023-03-17T20:44:21.338Z,1.13
2023-03-17T20:46:49.068Z,0.70
2023-03-17T20:49:17.554Z,1.20
2023-03-17T20:51:46.664Z,1.47
2023-03-17T20:54:14.389Z,2.20
2023-03-17T20:56:41.639Z,2.40
2023-03-17T20:59:09.931Z,2.60
2023-03-17T21:01:39.077Z,2.53
2023-03-17T21:04:09.374Z,2.80
2023-03-17T21:06:37.796Z,2.80
2023-03-17T21:09:05.500Z,3.17
2023-03-17T21:11:32.954Z,1.63
2023-03-17T21:14:00.363Z,0.77
2023-03-17T21:16:30.153Z,0.70
2023-03-17T21:18:58.053Z,0.77
2023-03-17T21:21:25.326Z,0.70
2023-03-17T21:23:52.740Z,0.73
2023-03-17T21:26:19.884Z,1.63
2023-03-17T21:28:47.867Z,2.50
2023-03-17T21:31:17.381Z,3.03
2023-03-17T21:33:45.178Z,2.30
2023-03-17T21:36:12.587Z,4.00
2023-03-17T21:38:40.587Z,2.43
2023-03-17T21:41:32.819Z,2.90
2023-03-17T21:44:01.685Z,0.60
2023-03-17T21:46:29.883Z,0.60
2023-03-17T21:48:57.559Z,0.70
2023-03-17T21:51:25.338Z,1.67
2023-03-17T21:53:53.247Z,2.10
2023-03-17T21:56:21.202Z,2.60
2023-03-17T21:58:49.432Z,2.50
2023-03-17T22:01:18.358Z,3.33
2023-03-17T22:03:45.895Z,4.93
2023-03-17T22:06:14.258Z,2.73
2023-03-17T22:08:41.740Z,2.47
2023-03-17T22:11:11.383Z,1.40
2023-03-17T22:13:38.755Z,1.27
2023-03-17T22:16:06.839Z,1.83
2023-03-17T22:18:34.600Z,2.10
2023-03-17T22:21:02.036Z,0.70
2023-03-17T22:23:29.689Z,0.70
2023-03-17T22:25:57.682Z,2.00
2023-03-17T22:28:25.311Z,3.13
2023-03-17T22:30:52.731Z,2.53
2023-03-17T22:33:20.218Z,3.03
2023-03-17T22:35:47.840Z,3.33
2023-03-17T22:38:15.574Z,2.90
2023-03-17T22:40:42.965Z,1.13
2023-03-17T22:43:10.801Z,0.80
2023-03-17T22:45:38.356Z,0.70
2023-03-17T22:48:05.799Z,1.13
2023-03-17T22:50:33.751Z,0.70
2023-03-17T22:53:01.814Z,2.30
2023-03-17T22:55:29.031Z,3.03
2023-03-17T22:57:56.397Z,3.03
2023-03-17T23:00:25.955Z,3.47
2023-03-17T23:02:53.250Z,3.63
2023-03-17T23:05:20.637Z,0.70
2023-03-17T23:07:50.613Z,0.70
2023-03-17T23:10:23.317Z,1.10
2023-03-17T23:12:51.478Z,0.60
2023-03-17T23:15:20.255Z,1.30
2023-03-17T23:17:47.784Z,0.70
2023-03-17T23:20:15.886Z,0.80
2023-03-17T23:22:43.168Z,0.70
2023-03-17T23:25:10.871Z,2.93
2023-03-17T23:27:38.359Z,2.97
2023-03-17T23:30:06.580Z,2.87
2023-03-17T23:32:34.464Z,2.70
2023-03-17T23:35:01.879Z,3.13
2023-03-17T23:37:29.450Z,5.47
2023-03-17T23:39:57.228Z,2.40
2023-03-17T23:42:24.557Z,1.00
2023-03-17T23:44:52.044Z,0.80
2023-03-17T23:47:20.938Z,0.80
2023-03-17T23:49:48.495Z,0.70
2023-03-17T23:52:15.983Z,2.00
2023-03-17T23:54:44.325Z,0.67
2023-03-17T23:57:11.937Z,1.47
2023-03-17T23:59:39.911Z,2.43
